Time;durP1;ratioP1;P1;durP2;ratioP2;P2;SDS_P1;SDS_P2;PMS_P1;PMS_P2;Temp;Humidity;BMP_temperature;BMP_pressure;BME280_temperature;BME280_humidity;BME280_pressure;Samples;Min_cycle;Max_cycle;Signal;HPM_P1;HPM_P2
2021/08/25 00:00:22;;;;;;;16.00;12.40;;;12.90;99.90;;;;;;5053027;28;20028;-66
2021/08/25 00:02:48;;;;;;;13.45;12.10;;;12.80;99.90;;;;;;5053246;28;20108;-66
2021/08/25 00:05:14;;;;;;;11.80;10.60;;;12.80;99.90;;;;;;5053844;28;20045;-66
2021/08/25 00:07:40;;;;;;;13.68;12.27;;;12.80;99.90;;;;;;5052918;28;20083;-65
2021/08/25 00:10:06;;;;;;;13.45;12.15;;;12.80;99.90;;;;;;5053671;28;20029;-66
2021/08/25 00:12:31;;;;;;;12.70;11.25;;;12.80;99.90;;;;;;5052364;28;20044;-66
2021/08/25 00:14:57;;;;;;;13.30;11.65;;;12.80;99.90;;;;;;5053573;28;20025;-66
2021/08/25 00:17:24;;;;;;;11.98;10.77;;;12.80;99.90;;;;;;5053756;28;20032;-66
2021/08/25 00:19:49;;;;;;;15.00;11.73;;;12.70;99.90;;;;;;5052132;28;20035;-66
2021/08/25 00:22:15;;;;;;;12.55;11.23;;;12.70;99.90;;;;;;5053770;28;20029;-66
2021/08/25 00:24:42;;;;;;;15.35;12.98;;;12.60;99.90;;;;;;5052716;28;20440;-66
2021/08/25 00:27:08;;;;;;;13.32;11.85;;;12.60;99.90;;;;;;5053679;28;20086;-66
2021/08/25 00:29:34;;;;;;;14.77;13.00;;;12.50;99.90;;;;;;5052655;28;20086;-66
2021/08/25 00:32:01;;;;;;;15.20;13.07;;;12.50;99.90;;;;;;5053478;28;20518;-65
2021/08/25 00:34:26;;;;;;;13.60;12.07;;;12.50;99.90;;;;;;5053273;28;20036;-65
2021/08/25 00:36:52;;;;;;;14.38;12.82;;;12.40;99.90;;;;;;5052709;28;20020;-65
2021/08/25 00:39:17;;;;;;;14.38;12.88;;;12.40;99.90;;;;;;5053014;28;20029;-65
2021/08/25 00:41:43;;;;;;;13.70;12.27;;;12.30;99.90;;;;;;5052273;28;20064;-65
2021/08/25 00:44:12;;;;;;;13.93;12.38;;;12.30;99.90;;;;;;5052980;28;20116;-65
2021/08/25 00:46:37;;;;;;;16.08;14.13;;;12.30;99.90;;;;;;5052432;28;20033;-66
2021/08/25 00:49:03;;;;;;;15.93;14.23;;;12.20;99.90;;;;;;5052870;28;20025;-66
2021/08/25 00:51:29;;;;;;;18.05;16.15;;;12.20;99.90;;;;;;5052577;28;20039;-65
2021/08/25 00:53:56;;;;;;;23.15;15.65;;;12.20;99.90;;;;;;5052468;28;20032;-66
2021/08/25 00:56:22;;;;;;;15.85;14.18;;;12.10;99.90;;;;;;5052797;28;20029;-65
2021/08/25 00:58:49;;;;;;;19.05;14.85;;;12.10;99.90;;;;;;5052265;28;20027;-65
2021/08/25 01:01:35;;;;;;;16.42;14.68;;;12.10;99.90;;;;;;5052725;28;20028;-65
2021/08/25 01:04:13;;;;;;;19.00;15.90;;;12.10;99.90;;;;;;5053089;28;20120;-65
2021/08/25 01:06:41;;;;;;;18.08;14.50;;;12.10;99.90;;;;;;5052047;28;20029;-65
2021/08/25 01:09:07;;;;;;;16.88;14.15;;;12.10;99.90;;;;;;5052758;28;20021;-65
2021/08/25 01:11:34;;;;;;;17.92;14.68;;;12.10;99.90;;;;;;5052197;28;20033;-65
2021/08/25 01:14:01;;;;;;;18.80;14.48;;;12.10;99.90;;;;;;5053048;28;20036;-65
2021/08/25 01:16:28;;;;;;;20.42;15.43;;;12.00;99.90;;;;;;5052461;28;20017;-65
2021/08/25 01:18:57;;;;;;;16.83;13.63;;;12.00;99.90;;;;;;5051677;28;20024;-66
2021/08/25 01:21:23;;;;;;;17.70;14.77;;;12.00;99.90;;;;;;5052283;28;20025;-66
2021/08/25 01:23:50;;;;;;;18.38;14.88;;;12.00;99.90;;;;;;5051681;28;20025;-66
2021/08/25 01:26:16;;;;;;;18.48;13.70;;;12.00;99.90;;;;;;5052489;28;20037;-65
2021/08/25 01:28:49;;;;;;;16.40;14.02;;;11.90;99.90;;;;;;5051719;28;20025;-65
2021/08/25 01:31:15;;;;;;;18.75;15.20;;;11.90;99.90;;;;;;5052369;28;20029;-66
2021/08/25 01:33:40;;;;;;;21.27;15.27;;;11.90;99.90;;;;;;5051350;28;20024;-66
2021/08/25 01:36:13;;;;;;;19.05;15.27;;;11.90;99.90;;;;;;5052227;28;20059;-65
2021/08/25 01:38:48;;;;;;;17.02;14.20;;;11.90;99.90;;;;;;5051307;28;20029;-65
2021/08/25 01:41:15;;;;;;;21.80;13.52;;;11.90;99.90;;;;;;5051920;28;20076;-65
2021/08/25 01:43:41;;;;;;;18.92;14.07;;;11.80;99.90;;;;;;5051373;28;20079;-66
2021/08/25 01:46:06;;;;;;;17.27;14.90;;;11.80;99.90;;;;;;5052399;28;20052;-65
2021/08/25 01:48:33;;;;;;;17.38;14.85;;;11.80;99.90;;;;;;5051577;28;20445;-66
2021/08/25 01:50:58;;;;;;;20.00;14.48;;;11.80;99.90;;;;;;5051173;28;20055;-65
2021/08/25 01:53:24;;;;;;;17.50;13.32;;;11.80;99.90;;;;;;5051624;28;20061;-66
2021/08/25 01:55:50;;;;;;;18.35;14.68;;;11.70;99.90;;;;;;5051373;28;20033;-66
2021/08/25 01:58:15;;;;;;;18.13;13.90;;;11.70;99.90;;;;;;5052119;28;20484;-65
2021/08/25 02:00:41;;;;;;;19.05;15.68;;;11.70;99.90;;;;;;5051120;28;20025;-66
2021/08/25 02:03:07;;;;;;;18.95;16.25;;;11.60;99.90;;;;;;5051735;28;20039;-66
2021/08/25 02:05:32;;;;;;;18.13;14.70;;;11.80;99.90;;;;;;5051457;28;20029;-66
2021/08/25 02:07:58;;;;;;;19.83;14.82;;;11.90;99.90;;;;;;5051306;28;20032;-66
2021/08/25 02:10:23;;;;;;;16.17;13.93;;;11.90;99.90;;;;;;5051880;28;20021;-66
2021/08/25 02:12:49;;;;;;;14.95;12.70;;;11.80;99.90;;;;;;5050854;28;20048;-66
2021/08/25 02:15:15;;;;;;;15.35;13.32;;;11.70;99.90;;;;;;5050898;28;20040;-66
2021/08/25 02:17:42;;;;;;;15.75;12.98;;;11.70;99.90;;;;;;5051218;28;20033;-66
2021/08/25 02:20:08;;;;;;;14.32;12.68;;;11.60;99.90;;;;;;5051364;28;20118;-67
2021/08/25 02:22:34;;;;;;;16.20;14.00;;;11.60;99.90;;;;;;5051867;28;20025;-66
2021/08/25 02:25:00;;;;;;;16.10;13.90;;;11.50;99.90;;;;;;5055737;28;20381;-66
2021/08/25 02:27:25;;;;;;;20.92;14.75;;;11.50;99.90;;;;;;5055375;28;20079;-66
2021/08/25 02:29:55;;;;;;;18.58;15.07;;;11.50;99.90;;;;;;5055026;28;20182;-66
2021/08/25 02:32:25;;;;;;;15.98;14.13;;;11.40;99.90;;;;;;5055824;28;20033;-65
2021/08/25 02:34:51;;;;;;;14.75;13.15;;;11.40;99.90;;;;;;5054596;28;20052;-65
2021/08/25 02:37:18;;;;;;;18.05;14.10;;;11.40;99.90;;;;;;5055338;28;20031;-65
2021/08/25 02:39:43;;;;;;;16.23;13.55;;;11.30;99.90;;;;;;5053519;28;20805;-65
2021/08/25 02:42:10;;;;;;;20.55;15.13;;;11.30;99.90;;;;;;5055546;28;20116;-65
2021/08/25 02:44:35;;;;;;;20.23;15.07;;;11.30;99.90;;;;;;5055041;28;20032;-65
2021/08/25 02:47:01;;;;;;;16.83;14.05;;;11.20;99.90;;;;;;5054857;28;20086;-65
2021/08/25 02:49:26;;;;;;;16.70;13.88;;;11.20;99.90;;;;;;5055368;28;20496;-66
2021/08/25 02:51:52;;;;;;;17.50;14.32;;;11.20;99.90;;;;;;5054506;28;20497;-66
2021/08/25 02:54:18;;;;;;;18.83;14.40;;;11.20;99.90;;;;;;5054914;28;20036;-65
2021/08/25 02:56:43;;;;;;;17.30;14.57;;;11.10;99.90;;;;;;5054265;28;20028;-66
2021/08/25 02:59:09;;;;;;;16.65;14.82;;;11.10;99.90;;;;;;5055291;28;20038;-66
2021/08/25 03:01:34;;;;;;;18.52;15.10;;;11.10;99.90;;;;;;5054577;28;20383;-66
2021/08/25 03:04:00;;;;;;;17.80;14.63;;;11.10;99.90;;;;;;5054504;28;20029;-65
2021/08/25 03:06:26;;;;;;;23.17;15.95;;;11.10;99.90;;;;;;5054722;28;20033;-66
2021/08/25 03:08:51;;;;;;;20.38;15.95;;;11.10;99.90;;;;;;5053319;28;20021;-66
2021/08/25 03:11:17;;;;;;;22.40;17.25;;;11.10;99.90;;;;;;5050487;28;20108;-66
2021/08/25 03:13:43;;;;;;;24.48;18.70;;;11.20;99.90;;;;;;5053716;28;20116;-66
2021/08/25 03:16:09;;;;;;;21.77;17.92;;;11.20;99.90;;;;;;5054893;28;20078;-65
2021/08/25 03:18:34;;;;;;;24.33;17.45;;;11.20;99.90;;;;;;5054428;28;20039;-65
2021/08/25 03:21:00;;;;;;;20.08;15.70;;;11.20;99.90;;;;;;5053843;28;20028;-65
2021/08/25 03:23:26;;;;;;;21.35;16.67;;;11.20;99.90;;;;;;5053893;28;20053;-65
2021/08/25 03:25:53;;;;;;;19.65;16.17;;;11.20;99.90;;;;;;5053443;28;20033;-65
2021/08/25 03:28:19;;;;;;;18.33;15.07;;;11.20;99.90;;;;;;5053759;28;20110;-65
2021/08/25 03:30:44;;;;;;;16.80;14.77;;;11.10;99.90;;;;;;5053631;28;20064;-66
2021/08/25 03:33:10;;;;;;;17.75;14.73;;;11.00;99.90;;;;;;5053742;28;20371;-65
2021/08/25 03:35:36;;;;;;;19.23;15.70;;;11.00;99.90;;;;;;5053443;28;20039;-66
2021/08/25 03:38:01;;;;;;;20.65;15.60;;;11.00;99.90;;;;;;5054134;28;20555;-65
2021/08/25 03:40:27;;;;;;;23.00;16.10;;;10.90;99.90;;;;;;5054405;28;20095;-65
2021/08/25 03:42:53;;;;;;;20.15;17.02;;;10.90;99.90;;;;;;5053121;28;20147;-65
2021/08/25 03:45:18;;;;;;;20.60;17.15;;;10.90;99.90;;;;;;5053565;28;20587;-65
2021/08/25 03:47:44;;;;;;;19.33;16.02;;;10.90;99.90;;;;;;5053260;28;20100;-66
2021/08/25 03:50:10;;;;;;;21.88;18.02;;;10.90;99.90;;;;;;5054046;28;20031;-65
2021/08/25 03:52:35;;;;;;;26.20;18.33;;;10.90;99.90;;;;;;5054362;28;20029;-65
2021/08/25 03:55:01;;;;;;;22.00;18.10;;;10.90;99.90;;;;;;5052738;28;20025;-65
2021/08/25 03:57:27;;;;;;;21.13;17.80;;;10.80;99.90;;;;;;5053801;28;20025;-65
2021/08/25 03:59:52;;;;;;;19.63;16.42;;;10.80;99.90;;;;;;5053017;28;20370;-66
2021/08/25 04:02:18;;;;;;;21.60;16.88;;;10.80;99.90;;;;;;5054018;28;20060;-66
2021/08/25 04:04:44;;;;;;;23.17;19.02;;;10.80;99.90;;;;;;5053205;28;20477;-66
2021/08/25 04:07:09;;;;;;;21.17;16.80;;;10.80;99.90;;;;;;5052388;28;20105;-66
2021/08/25 04:09:35;;;;;;;20.33;17.10;;;10.70;99.90;;;;;;5053754;28;20033;-66
2021/08/25 04:12:01;;;;;;;21.63;16.60;;;10.70;99.90;;;;;;5052921;28;20520;-66
2021/08/25 04:14:26;;;;;;;22.38;16.83;;;10.70;99.90;;;;;;5053888;28;20504;-65
2021/08/25 04:16:52;;;;;;;22.33;16.88;;;10.90;99.90;;;;;;5052770;28;20083;-65
2021/08/25 04:19:18;;;;;;;21.52;17.95;;;10.60;99.90;;;;;;5053670;28;20063;-65
2021/08/25 04:21:43;;;;;;;26.33;19.95;;;10.60;99.90;;;;;;5053046;28;20025;-66
2021/08/25 04:24:09;;;;;;;31.58;18.73;;;10.60;99.90;;;;;;5053083;28;20486;-66
2021/08/25 04:26:35;;;;;;;22.23;17.77;;;10.60;99.90;;;;;;5053382;28;20025;-66
2021/08/25 04:29:00;;;;;;;23.02;18.33;;;10.50;99.90;;;;;;5051357;28;20029;-66
2021/08/25 04:31:26;;;;;;;22.63;18.33;;;10.50;99.90;;;;;;5053613;28;20043;-66
2021/08/25 04:33:51;;;;;;;22.45;18.73;;;10.50;99.90;;;;;;5052519;28;20029;-66
2021/08/25 04:36:17;;;;;;;23.23;18.35;;;10.40;99.90;;;;;;5052826;28;20074;-66
2021/08/25 04:38:43;;;;;;;23.77;18.80;;;10.40;99.90;;;;;;5052737;28;20078;-66
2021/08/25 04:41:10;;;;;;;30.08;21.15;;;10.40;99.90;;;;;;5053123;28;20052;-66
2021/08/25 04:43:36;;;;;;;21.60;19.08;;;10.40;99.90;;;;;;5052638;28;20474;-66
2021/08/25 04:46:02;;;;;;;24.20;19.63;;;10.50;99.90;;;;;;5051687;28;20064;-66
2021/08/25 04:48:28;;;;;;;23.52;18.17;;;10.40;99.90;;;;;;5053208;28;20470;-66
2021/08/25 04:50:54;;;;;;;24.58;18.27;;;10.40;99.90;;;;;;5051937;28;20029;-66
2021/08/25 04:53:19;;;;;;;24.33;19.50;;;10.40;99.90;;;;;;5052821;28;20037;-66
2021/08/25 04:55:45;;;;;;;23.25;18.88;;;10.40;99.90;;;;;;5052180;28;20052;-66
2021/08/25 04:58:11;;;;;;;20.85;17.73;;;10.40;99.90;;;;;;5052579;28;20029;-66
2021/08/25 05:00:37;;;;;;;24.17;18.60;;;10.40;99.90;;;;;;5052884;28;20490;-66
2021/08/25 05:03:03;;;;;;;24.25;18.27;;;10.50;99.90;;;;;;5052064;28;20036;-66
2021/08/25 05:05:29;;;;;;;24.55;19.15;;;10.50;99.90;;;;;;5051673;28;20112;-65
2021/08/25 05:07:55;;;;;;;25.40;18.90;;;10.50;99.90;;;;;;5051889;28;20056;-65
2021/08/25 05:10:20;;;;;;;26.15;19.35;;;10.50;99.90;;;;;;5052139;28;20411;-65
2021/08/25 05:12:46;;;;;;;20.70;17.33;;;10.60;99.90;;;;;;5050826;28;20033;-65
2021/08/25 05:15:12;;;;;;;20.88;17.13;;;10.60;99.90;;;;;;5051069;28;20107;-66
2021/08/25 05:17:38;;;;;;;24.33;18.58;;;10.70;99.90;;;;;;5052347;28;20025;-65
2021/08/25 05:20:06;;;;;;;24.42;18.42;;;10.70;99.90;;;;;;5051917;28;20040;-66
2021/08/25 05:22:33;;;;;;;23.23;17.40;;;10.80;99.90;;;;;;5052082;28;20032;-65
2021/08/25 05:24:58;;;;;;;19.90;16.10;;;10.90;99.90;;;;;;5051000;28;20039;-66
2021/08/25 05:27:24;;;;;;;23.75;17.23;;;11.00;99.90;;;;;;5051321;28;20092;-66
2021/08/25 05:29:52;;;;;;;24.02;19.17;;;11.10;99.90;;;;;;5050083;28;20029;-65
2021/08/25 05:32:17;;;;;;;21.70;17.55;;;11.10;99.90;;;;;;5051015;28;20079;-65
2021/08/25 05:34:43;;;;;;;20.77;16.38;;;11.30;99.90;;;;;;5052009;28;20036;-66
2021/08/25 05:37:09;;;;;;;23.95;18.08;;;11.30;99.90;;;;;;5051749;28;20136;-65
2021/08/25 05:39:35;;;;;;;22.20;17.67;;;11.60;99.90;;;;;;5051819;28;20069;-65
2021/08/25 05:42:00;;;;;;;21.90;17.40;;;11.80;99.90;;;;;;5051252;28;20559;-65
2021/08/25 05:44:26;;;;;;;17.98;16.05;;;11.90;99.90;;;;;;5050844;28;20029;-65
2021/08/25 05:46:52;;;;;;;19.05;16.42;;;12.00;99.90;;;;;;5051246;28;20158;-66
2021/08/25 05:49:17;;;;;;;18.77;14.88;;;12.10;99.90;;;;;;5051946;28;20520;-65
2021/08/25 05:51:43;;;;;;;18.40;14.88;;;12.20;99.90;;;;;;5051476;28;20040;-65
2021/08/25 05:54:09;;;;;;;19.33;16.42;;;12.30;99.90;;;;;;5047047;28;20021;-65
2021/08/25 05:56:35;;;;;;;18.73;15.15;;;12.40;99.90;;;;;;5048705;28;20467;-69
2021/08/25 05:59:01;;;;;;;17.63;14.73;;;12.60;99.90;;;;;;5050460;28;20028;-67
2021/08/25 06:01:27;;;;;;;16.00;13.63;;;12.70;99.90;;;;;;5052218;28;20021;-66
2021/08/25 06:03:52;;;;;;;16.67;14.07;;;12.80;99.90;;;;;;5051296;28;20068;-72
2021/08/25 06:06:18;;;;;;;19.30;12.93;;;12.90;99.90;;;;;;5052330;28;20060;-67
2021/08/25 06:08:44;;;;;;;18.52;14.05;;;13.10;99.90;;;;;;5051297;28;20100;-64
2021/08/25 06:11:09;;;;;;;15.55;13.13;;;13.10;99.90;;;;;;5052195;28;20033;-64
2021/08/25 06:13:35;;;;;;;19.92;14.27;;;13.20;99.90;;;;;;5052067;28;20094;-66
2021/08/25 06:16:01;;;;;;;15.13;12.82;;;13.30;99.90;;;;;;5051470;28;20036;-65
2021/08/25 06:18:26;;;;;;;14.07;12.15;;;13.40;99.90;;;;;;5052249;28;20029;-65
2021/08/25 06:20:52;;;;;;;13.93;11.55;;;13.40;99.90;;;;;;5050980;28;20025;-66
2021/08/25 06:23:19;;;;;;;15.85;11.98;;;13.50;99.90;;;;;;5051172;28;20031;-65
2021/08/25 06:25:44;;;;;;;14.38;11.75;;;13.60;99.90;;;;;;5050148;28;20041;-65
2021/08/25 06:28:10;;;;;;;15.90;12.27;;;13.60;99.90;;;;;;5051291;28;20031;-65
2021/08/25 06:30:36;;;;;;;18.77;11.85;;;13.70;99.90;;;;;;5052110;28;20029;-65
2021/08/25 06:33:02;;;;;;;14.38;11.98;;;13.90;99.90;;;;;;5051210;28;20041;-65
2021/08/25 06:35:28;;;;;;;15.90;11.70;;;14.00;99.90;;;;;;5051791;28;20466;-66
2021/08/25 06:37:54;;;;;;;13.40;11.75;;;14.00;99.90;;;;;;5046018;28;20028;-64
2021/08/25 06:40:21;;;;;;;14.50;10.95;;;14.00;99.90;;;;;;5052315;28;20099;-64
2021/08/25 06:42:48;;;;;;;19.98;12.38;;;14.20;99.90;;;;;;5051795;28;20033;-65
2021/08/25 06:45:15;;;;;;;12.73;11.40;;;14.20;99.90;;;;;;5051196;28;20087;-65
2021/08/25 06:47:42;;;;;;;13.02;10.82;;;14.30;99.90;;;;;;5051928;28;20124;-66
2021/08/25 06:50:12;;;;;;;14.60;10.73;;;14.30;99.90;;;;;;5051783;28;20025;-65
2021/08/25 06:52:39;;;;;;;14.05;11.02;;;14.40;99.90;;;;;;5066700;28;20029;-65
2021/08/25 06:55:06;;;;;;;15.43;11.23;;;14.50;99.90;;;;;;5059783;28;20029;-65
2021/08/25 06:57:37;;;;;;;13.02;10.25;;;14.60;99.90;;;;;;5051349;28;20458;-65
2021/08/25 07:00:05;;;;;;;14.85;10.45;;;14.70;99.90;;;;;;5051005;28;20029;-65
2021/08/25 07:02:32;;;;;;;13.23;10.63;;;14.80;99.90;;;;;;5051754;28;20112;-65
2021/08/25 07:05:00;;;;;;;11.85;9.50;;;14.90;99.90;;;;;;5050597;28;20029;-65
2021/08/25 07:07:30;;;;;;;14.93;11.48;;;15.00;99.90;;;;;;5056614;28;20115;-65
2021/08/25 07:09:57;;;;;;;12.52;10.00;;;15.10;99.90;;;;;;5053148;28;20037;-65
2021/08/25 07:12:24;;;;;;;16.10;10.63;;;15.20;99.90;;;;;;5054906;28;20033;-65
2021/08/25 07:14:53;;;;;;;11.10;9.35;;;15.30;99.90;;;;;;5053946;28;20069;-65
2021/08/25 07:17:20;;;;;;;13.18;9.45;;;15.30;99.90;;;;;;5055530;28;20020;-65
2021/08/25 07:19:50;;;;;;;10.90;8.82;;;15.30;99.90;;;;;;5054328;28;20059;-65
2021/08/25 07:22:18;;;;;;;11.63;9.60;;;15.40;99.90;;;;;;5055159;28;20021;-64
2021/08/25 07:24:45;;;;;;;11.90;9.45;;;15.50;99.90;;;;;;5054356;28;20087;-65
2021/08/25 07:27:15;;;;;;;11.20;9.48;;;15.60;99.90;;;;;;5054882;28;20049;-65
2021/08/25 07:29:42;;;;;;;18.65;9.50;;;15.80;99.90;;;;;;5054693;28;20516;-65
2021/08/25 07:32:12;;;;;;;16.45;8.75;;;15.80;99.90;;;;;;5054476;28;20070;-64
2021/08/25 07:34:42;;;;;;;10.25;9.10;;;15.80;99.90;;;;;;5055389;28;20466;-64
2021/08/25 07:37:09;;;;;;;9.43;8.45;;;15.90;99.90;;;;;;5052736;28;20070;-64
2021/08/25 07:39:36;;;;;;;10.32;9.18;;;15.90;99.90;;;;;;5054417;28;20025;-63
2021/08/25 07:42:02;;;;;;;13.70;9.15;;;16.00;99.90;;;;;;5054017;28;20036;-64
2021/08/25 07:44:28;;;;;;;13.05;8.63;;;16.10;99.90;;;;;;5054410;28;20033;-64
2021/08/25 07:46:55;;;;;;;13.73;8.65;;;16.20;99.90;;;;;;5053882;28;20112;-64
2021/08/25 07:49:24;;;;;;;9.20;7.22;;;16.30;99.90;;;;;;5054740;28;20025;-64
2021/08/25 07:51:50;;;;;;;9.77;8.25;;;16.40;99.90;;;;;;5054047;28;20053;-64
2021/08/25 07:54:16;;;;;;;9.93;7.75;;;16.50;99.90;;;;;;5054767;28;20043;-64
2021/08/25 07:56:42;;;;;;;9.05;7.80;;;16.60;99.90;;;;;;5054410;28;20059;-64
2021/08/25 07:59:07;;;;;;;12.50;8.32;;;16.70;99.90;;;;;;5053561;28;20060;-64
2021/08/25 08:01:33;;;;;;;13.23;9.35;;;16.80;99.90;;;;;;5054452;28;20031;-64
2021/08/25 08:03:59;;;;;;;13.63;8.73;;;16.90;99.90;;;;;;5053744;28;20071;-64
2021/08/25 08:06:25;;;;;;;10.55;7.47;;;16.90;99.90;;;;;;5054136;28;20035;-64
2021/08/25 08:08:51;;;;;;;14.23;9.27;;;16.90;99.90;;;;;;5072941;28;20044;-64
2021/08/25 08:11:17;;;;;;;12.27;8.18;;;17.00;99.90;;;;;;5033961;28;20022;-64
2021/08/25 08:13:43;;;;;;;13.45;8.15;;;17.00;99.90;;;;;;5034075;28;20064;-64
2021/08/25 08:16:09;;;;;;;10.68;7.60;;;17.00;99.90;;;;;;5033195;28;20025;-64
2021/08/25 08:18:40;;;;;;;9.88;8.00;;;17.20;99.90;;;;;;5034092;28;20064;-64
2021/08/25 08:21:06;;;;;;;9.48;7.22;;;17.30;99.90;;;;;;5032754;28;20029;-64
2021/08/25 08:23:32;;;;;;;9.50;6.88;;;17.30;99.90;;;;;;5033867;28;20029;-64
2021/08/25 08:25:58;;;;;;;9.50;7.70;;;17.40;99.90;;;;;;5050941;28;20033;-65
2021/08/25 08:28:24;;;;;;;10.27;7.38;;;17.50;99.90;;;;;;5053517;28;20025;-64
2021/08/25 08:30:49;;;;;;;17.40;7.88;;;17.60;99.90;;;;;;5052757;28;20025;-65
2021/08/25 08:33:15;;;;;;;8.77;5.95;;;17.70;99.90;;;;;;5053891;28;20466;-64
2021/08/25 08:35:41;;;;;;;8.80;5.93;;;17.80;99.90;;;;;;5053584;28;20028;-64
2021/08/25 08:38:07;;;;;;;8.40;5.55;;;17.90;99.90;;;;;;5065954;28;20078;-64
2021/08/25 08:40:34;;;;;;;7.57;6.00;;;17.90;99.30;;;;;;5073285;28;20055;-64
2021/08/25 08:43:08;;;;;;;7.75;4.95;;;18.00;97.80;;;;;;5072670;28;20033;-64
2021/08/25 08:45:38;;;;;;;8.20;5.35;;;18.00;99.40;;;;;;5073471;28;20032;-64
2021/08/25 08:48:07;;;;;;;8.90;5.10;;;18.10;97.90;;;;;;5072768;28;20031;-64
2021/08/25 08:50:34;;;;;;;7.35;5.05;;;18.10;97.60;;;;;;5073398;28;20028;-64
2021/08/25 08:53:00;;;;;;;8.10;4.90;;;18.30;97.00;;;;;;5072911;28;20024;-65
2021/08/25 08:55:25;;;;;;;6.82;5.45;;;18.30;96.50;;;;;;5059851;28;20073;-65
2021/08/25 08:57:51;;;;;;;8.95;5.13;;;18.50;95.70;;;;;;5052705;28;20032;-64
2021/08/25 09:00:17;;;;;;;8.30;4.85;;;18.50;96.10;;;;;;5053193;28;20459;-64
2021/08/25 09:02:45;;;;;;;4.88;4.35;;;18.60;96.50;;;;;;5053550;28;20029;-64
2021/08/25 09:05:32;;;;;;;5.93;4.50;;;18.70;94.60;;;;;;5052701;28;20048;-64
2021/08/25 09:08:00;;;;;;;9.45;4.65;;;18.80;94.00;;;;;;5064167;28;20047;-64
2021/08/25 09:10:38;;;;;;;9.40;4.82;;;18.90;93.60;;;;;;5059881;28;20047;-64
2021/08/25 09:13:11;;;;;;;6.75;5.10;;;19.10;93.70;;;;;;5052273;28;20079;-64
2021/08/25 09:15:41;;;;;;;7.55;4.72;;;19.10;93.50;;;;;;5053062;28;20386;-64
2021/08/25 09:18:09;;;;;;;;;;;19.00;94.30;;;;;;5052490;28;20544;-65
2021/08/25 09:20:41;;;;;;;6.25;4.63;;;19.10;94.00;;;;;;5052823;28;19904;-64
2021/08/25 09:23:11;;;;;;;8.52;5.28;;;19.20;93.60;;;;;;5052027;28;20052;-64
2021/08/25 09:25:37;;;;;;;7.75;5.00;;;19.30;93.70;;;;;;5052417;28;20390;-64
2021/08/25 09:28:05;;;;;;;5.22;4.72;;;19.40;92.90;;;;;;5051403;28;20025;-65
2021/08/25 09:30:57;;;;;;;7.32;5.32;;;19.50;92.40;;;;;;5052342;28;20086;-66
2021/08/25 09:33:26;;;;;;;6.90;4.53;;;19.60;91.70;;;;;;5052190;28;20040;-64
2021/08/25 09:35:55;;;;;;;7.55;5.15;;;19.60;91.90;;;;;;5051883;28;20028;-65
2021/08/25 09:38:22;;;;;;;6.35;4.75;;;19.80;90.60;;;;;;5066955;28;20098;-64
2021/08/25 09:40:53;;;;;;;5.28;4.32;;;19.90;90.20;;;;;;5071724;28;20048;-64
2021/08/25 09:43:31;;;;;;;10.13;5.25;;;20.00;87.90;;;;;;5072093;28;20045;-65
2021/08/25 09:46:25;;;;;;;7.55;4.80;;;20.10;87.90;;;;;;5071111;28;20056;-65
2021/08/25 09:48:54;;;;;;;9.80;4.43;;;20.20;88.50;;;;;;5071761;28;20454;-65
2021/08/25 09:51:25;;;;;;;6.65;5.38;;;20.30;87.80;;;;;;5072175;28;20106;-65
2021/08/25 09:54:07;;;;;;;5.80;4.38;;;20.50;90.00;;;;;;5071149;28;20031;-65
2021/08/25 09:56:35;;;;;;;6.05;4.60;;;20.60;86.00;;;;;;5051851;28;20098;-65
2021/08/25 09:59:05;;;;;;;6.45;4.13;;;20.70;83.80;;;;;;5051120;28;20049;-64
2021/08/25 10:01:31;;;;;;;6.47;4.50;;;20.90;83.10;;;;;;5051769;28;20028;-65
2021/08/25 10:03:57;;;;;;;6.63;4.55;;;21.10;79.80;;;;;;5051009;28;20121;-65
2021/08/25 10:06:25;;;;;;;5.70;4.18;;;21.10;81.20;;;;;;5051811;28;20029;-64
2021/08/25 10:08:51;;;;;;;5.72;4.07;;;21.20;79.70;;;;;;5069797;28;20024;-65
2021/08/25 10:11:41;;;;;;;8.30;4.70;;;21.20;80.20;;;;;;5051281;28;20485;-65
2021/08/25 10:14:16;;;;;;;6.72;4.70;;;21.30;79.70;;;;;;5050840;28;20033;-65
2021/08/25 10:16:43;;;;;;;4.38;3.50;;;21.40;78.00;;;;;;5051383;28;20486;-65
2021/08/25 10:19:38;;;;;;;6.47;3.90;;;21.50;77.20;;;;;;5050959;28;20056;-65
2021/08/25 10:22:15;;;;;;;4.72;3.53;;;21.40;73.20;;;;;;5050919;28;20467;-65
2021/08/25 10:24:53;;;;;;;5.57;3.78;;;21.10;75.30;;;;;;5047975;28;20381;-65
2021/08/25 10:27:20;;;;;;;8.25;4.25;;;21.00;76.60;;;;;;5051313;28;20029;-65
2021/08/25 10:30:01;;;;;;;5.30;3.72;;;21.00;74.50;;;;;;5050997;28;20441;-65
2021/08/25 10:32:26;;;;;;;5.63;3.78;;;21.00;75.10;;;;;;5049979;28;20108;-65
2021/08/25 10:35:11;;;;;;;5.78;4.10;;;21.20;74.40;;;;;;5050975;28;20504;-65
2021/08/25 10:37:37;;;;;;;4.60;3.83;;;21.40;72.40;;;;;;5059765;28;20022;-65
2021/08/25 10:40:04;;;;;;;6.07;3.90;;;21.30;71.60;;;;;;5070414;28;20056;-65
2021/08/25 10:42:51;;;;;;;7.95;4.03;;;21.20;72.10;;;;;;5071571;28;20032;-65
2021/08/25 10:45:57;;;;;;;5.60;4.07;;;21.10;71.50;;;;;;5074290;28;20493;-64
2021/08/25 10:48:42;;;;;;;6.00;3.78;;;21.10;69.90;;;;;;5074819;28;20101;-65
2021/08/25 10:51:27;;;;;;;6.63;4.22;;;21.00;70.30;;;;;;5074699;28;20094;-65
2021/08/25 10:53:53;;;;;;;6.15;4.18;;;21.00;68.40;;;;;;5054589;28;20029;-65
2021/08/25 10:56:28;;;;;;;6.03;3.95;;;21.20;67.70;;;;;;5055170;28;20021;-65
2021/08/25 10:58:58;;;;;;;8.18;4.13;;;21.50;66.90;;;;;;5054987;28;20421;-66
2021/08/25 11:01:26;;;;;;;7.60;4.43;;;22.00;67.80;;;;;;5055340;28;20025;-65
2021/08/25 11:03:52;;;;;;;6.03;4.22;;;22.40;66.50;;;;;;5054819;28;20520;-65
2021/08/25 11:06:31;;;;;;;6.18;4.07;;;22.80;66.80;;;;;;5054528;28;20082;-65
2021/08/25 11:09:20;;;;;;;4.45;4.00;;;23.10;65.30;;;;;;5055865;28;20386;-65
2021/08/25 11:11:47;;;;;;;7.68;4.15;;;23.00;64.50;;;;;;5053803;28;20375;-65
2021/08/25 11:14:26;;;;;;;6.97;4.05;;;23.00;64.90;;;;;;5053934;28;20094;-65
2021/08/25 11:16:54;;;;;;;5.57;4.03;;;22.70;65.60;;;;;;5054810;28;20037;-65
2021/08/25 11:19:25;;;;;;;6.20;3.92;;;22.70;67.30;;;;;;5054170;28;20032;-65
2021/08/25 11:21:51;;;;;;;5.28;4.05;;;22.70;67.80;;;;;;5054783;28;20024;-65
2021/08/25 11:24:17;;;;;;;7.38;4.60;;;22.70;68.20;;;;;;5051989;28;20716;-65
2021/08/25 11:26:43;;;;;;;7.32;3.95;;;22.70;67.30;;;;;;5054360;28;20033;-65
2021/08/25 11:29:17;;;;;;;5.65;4.18;;;22.30;65.40;;;;;;5053542;28;20387;-65
2021/08/25 11:31:42;;;;;;;5.95;4.20;;;22.20;65.30;;;;;;5054362;28;20025;-65
2021/08/25 11:34:12;;;;;;;6.80;4.88;;;22.10;66.90;;;;;;5052771;28;20108;-65
2021/08/25 11:37:02;;;;;;;10.63;4.90;;;21.70;66.10;;;;;;5054750;28;20090;-65
2021/08/25 11:39:29;;;;;;;8.07;4.85;;;21.40;67.50;;;;;;5062445;28;20094;-65
2021/08/25 11:41:57;;;;;;;10.40;4.72;;;21.70;67.60;;;;;;5053864;28;20057;-65
2021/08/25 11:44:37;;;;;;;8.00;4.68;;;22.10;66.80;;;;;;5054028;28;20049;-65
2021/08/25 11:47:11;;;;;;;8.75;4.90;;;22.00;65.10;;;;;;5052298;28;20034;-65
2021/08/25 11:49:37;;;;;;;6.30;4.40;;;22.00;63.90;;;;;;5053760;28;20041;-65
2021/08/25 11:52:03;;;;;;;7.65;4.80;;;22.10;63.30;;;;;;5052881;28;20086;-65
2021/08/25 11:54:29;;;;;;;6.40;4.38;;;22.20;63.30;;;;;;5052977;28;20436;-65
2021/08/25 11:56:54;;;;;;;7.20;4.60;;;22.30;63.30;;;;;;5051766;28;20029;-65
2021/08/25 11:59:21;;;;;;;5.03;4.20;;;22.60;62.60;;;;;;5053569;28;20025;-65
2021/08/25 12:01:46;;;;;;;6.38;4.50;;;23.00;62.10;;;;;;5053789;28;20037;-65
2021/08/25 12:04:28;;;;;;;7.45;4.30;;;23.50;61.30;;;;;;5052236;28;20029;-65
2021/08/25 12:06:55;;;;;;;7.80;4.45;;;24.10;57.50;;;;;;5056560;28;20037;-65
2021/08/25 12:09:34;;;;;;;6.95;4.43;;;24.20;57.00;;;;;;5068961;28;20025;-65
2021/08/25 12:12:01;;;;;;;7.13;4.65;;;24.30;59.80;;;;;;5052957;28;20075;-65
2021/08/25 12:14:27;;;;;;;5.57;4.43;;;24.50;56.70;;;;;;5052156;28;20067;-65
2021/08/25 12:17:07;;;;;;;5.50;4.35;;;24.50;56.50;;;;;;5052594;28;20025;-65
2021/08/25 12:19:35;;;;;;;8.00;4.75;;;24.40;57.30;;;;;;5051928;28;20086;-65
2021/08/25 12:22:27;;;;;;;6.78;4.45;;;24.40;57.30;;;;;;5052278;28;20479;-65
2021/08/25 12:24:53;;;;;;;7.85;4.70;;;24.20;55.90;;;;;;5051865;28;20025;-65
2021/08/25 12:27:19;;;;;;;6.35;4.35;;;23.80;56.30;;;;;;5051355;28;20111;-65
2021/08/25 12:29:45;;;;;;;6.13;4.28;;;23.60;56.50;;;;;;5052470;28;20029;-65
2021/08/25 12:32:12;;;;;;;6.55;4.80;;;23.80;55.70;;;;;;5052374;28;20036;-65
2021/08/25 12:35:00;;;;;;;7.22;4.30;;;23.90;55.60;;;;;;5051711;28;20410;-65
2021/08/25 12:37:49;;;;;;;6.63;4.25;;;24.30;55.40;;;;;;5059843;28;20381;-65
2021/08/25 12:40:19;;;;;;;5.18;4.45;;;24.70;53.70;;;;;;5071774;28;20615;-65